sensor_id;sensor_type;location;lat;lon;timestamp;pressure;altitude;pressure_sealevel;temperature;humidity
47636;BME280;33364;50.766;15.338;2023-03-13T00:00:53;94340.28;;;2.17;79.44
47636;BME280;33364;50.766;15.338;2023-03-13T00:03:20;94339.97;;;2.38;79.75
47636;BME280;33364;50.766;15.338;2023-03-13T00:05:45;94345.50;;;2.24;76.71
47636;BME280;33364;50.766;15.338;2023-03-13T00:08:11;94341.09;;;2.11;75.84
47636;BME280;33364;50.766;15.338;2023-03-13T00:10:37;94348.38;;;2.09;76.67
47636;BME280;33364;50.766;15.338;2023-03-13T00:13:04;94354.59;;;2.14;77.17
47636;BME280;33364;50.766;15.338;2023-03-13T00:15:29;94340.50;;;2.09;76.93
47636;BME280;33364;50.766;15.338;2023-03-13T00:17:55;94337.50;;;2.05;77.32
47636;BME280;33364;50.766;15.338;2023-03-13T00:20:21;94341.75;;;1.99;78.34
47636;BME280;33364;50.766;15.338;2023-03-13T00:22:47;94331.13;;;2.39;82.93
47636;BME280;33364;50.766;15.338;2023-03-13T00:25:13;94330.72;;;2.36;76.74
47636;BME280;33364;50.766;15.338;2023-03-13T00:27:39;94326.34;;;2.23;76.00
47636;BME280;33364;50.766;15.338;2023-03-13T00:30:05;94327.75;;;2.19;76.07
47636;BME280;33364;50.766;15.338;2023-03-13T00:32:31;94325.94;;;2.26;76.44
47636;BME280;33364;50.766;15.338;2023-03-13T00:34:56;94318.91;;;2.20;76.62
47636;BME280;33364;50.766;15.338;2023-03-13T00:37:22;94322.53;;;2.12;75.82
47636;BME280;33364;50.766;15.338;2023-03-13T00:39:48;94319.72;;;2.14;78.63
47636;BME280;33364;50.766;15.338;2023-03-13T00:42:14;94319.25;;;2.30;78.26
47636;BME280;33364;50.766;15.338;2023-03-13T00:44:39;94325.22;;;2.51;80.47
47636;BME280;33364;50.766;15.338;2023-03-13T00:47:05;94316.38;;;2.38;77.45
47636;BME280;33364;50.766;15.338;2023-03-13T00:49:32;94320.06;;;2.31;75.87
47636;BME280;33364;50.766;15.338;2023-03-13T00:51:58;94320.88;;;2.31;76.76
47636;BME280;33364;50.766;15.338;2023-03-13T00:54:23;94318.97;;;2.45;78.42
47636;BME280;33364;50.766;15.338;2023-03-13T00:56:49;94318.66;;;2.28;75.23
47636;BME280;33364;50.766;15.338;2023-03-13T00:59:15;94317.78;;;2.48;76.53
47636;BME280;33364;50.766;15.338;2023-03-13T01:01:41;94312.25;;;2.24;77.35
47636;BME280;33364;50.766;15.338;2023-03-13T01:04:09;94319.59;;;2.47;81.24
47636;BME280;33364;50.766;15.338;2023-03-13T01:06:37;94317.19;;;2.46;77.26
47636;BME280;33364;50.766;15.338;2023-03-13T01:09:05;94322.44;;;2.46;75.65
47636;BME280;33364;50.766;15.338;2023-03-13T01:11:34;94316.63;;;2.30;74.88
47636;BME280;33364;50.766;15.338;2023-03-13T01:14:04;94319.66;;;2.27;75.85
47636;BME280;33364;50.766;15.338;2023-03-13T01:16:31;94313.28;;;2.10;76.52
47636;BME280;33364;50.766;15.338;2023-03-13T01:19:06;94323.41;;;2.06;77.44
47636;BME280;33364;50.766;15.338;2023-03-13T01:21:32;94317.72;;;2.02;77.30
47636;BME280;33364;50.766;15.338;2023-03-13T01:23:58;94317.72;;;2.02;78.19
47636;BME280;33364;50.766;15.338;2023-03-13T01:26:25;94310.25;;;2.19;80.25
47636;BME280;33364;50.766;15.338;2023-03-13T01:28:51;94310.38;;;2.31;79.16
47636;BME280;33364;50.766;15.338;2023-03-13T01:33:49;94310.38;;;2.31;76.66
47636;BME280;33364;50.766;15.338;2023-03-13T01:36:17;94310.66;;;2.16;75.82
47636;BME280;33364;50.766;15.338;2023-03-13T01:38:43;94311.66;;;2.15;77.66
47636;BME280;33364;50.766;15.338;2023-03-13T01:41:10;94301.19;;;2.09;77.29
47636;BME280;33364;50.766;15.338;2023-03-13T01:43:36;94297.97;;;2.13;76.92
47636;BME280;33364;50.766;15.338;2023-03-13T01:46:10;94292.97;;;1.98;80.88
47636;BME280;33364;50.766;15.338;2023-03-13T01:51:25;94299.72;;;2.26;81.66
47636;BME280;33364;50.766;15.338;2023-03-13T01:54:02;94293.69;;;2.19;76.55
47636;BME280;33364;50.766;15.338;2023-03-13T01:59:12;94297.50;;;2.23;79.57
47636;BME280;33364;50.766;15.338;2023-03-13T02:01:40;94296.94;;;2.21;77.44
47636;BME280;33364;50.766;15.338;2023-03-13T02:04:06;94293.44;;;2.27;78.08
47636;BME280;33364;50.766;15.338;2023-03-13T02:06:35;94293.59;;;2.46;77.13
47636;BME280;33364;50.766;15.338;2023-03-13T02:09:07;94291.53;;;2.48;77.23
47636;BME280;33364;50.766;15.338;2023-03-13T02:11:52;94297.78;;;2.47;77.25
47636;BME280;33364;50.766;15.338;2023-03-13T02:14:22;94280.00;;;2.55;78.40
47636;BME280;33364;50.766;15.338;2023-03-13T02:16:51;94284.94;;;2.38;76.39
47636;BME280;33364;50.766;15.338;2023-03-13T02:19:30;94283.81;;;2.21;76.54
47636;BME280;33364;50.766;15.338;2023-03-13T02:22:18;94278.53;;;2.28;79.84
47636;BME280;33364;50.766;15.338;2023-03-13T02:27:14;94278.69;;;2.39;76.59
47636;BME280;33364;50.766;15.338;2023-03-13T02:29:40;94277.72;;;2.27;76.91
47636;BME280;33364;50.766;15.338;2023-03-13T02:32:07;94279.69;;;2.38;76.74
47636;BME280;33364;50.766;15.338;2023-03-13T02:34:34;94274.47;;;2.32;76.58
47636;BME280;33364;50.766;15.338;2023-03-13T02:37:03;94274.88;;;2.29;77.20
47636;BME280;33364;50.766;15.338;2023-03-13T02:39:31;94276.84;;;2.40;80.51
47636;BME280;33364;50.766;15.338;2023-03-13T02:42:00;94267.06;;;2.61;81.27
47636;BME280;33364;50.766;15.338;2023-03-13T02:44:26;94277.25;;;2.44;75.05
47636;BME280;33364;50.766;15.338;2023-03-13T02:46:52;94270.44;;;2.36;77.47
47636;BME280;33364;50.766;15.338;2023-03-13T02:49:27;94272.94;;;2.56;79.53
47636;BME280;33364;50.766;15.338;2023-03-13T02:51:56;94274.78;;;2.55;76.91
47636;BME280;33364;50.766;15.338;2023-03-13T02:54:32;94275.06;;;2.41;77.68
47636;BME280;33364;50.766;15.338;2023-03-13T02:57:02;94273.69;;;2.70;78.02
47636;BME280;33364;50.766;15.338;2023-03-13T02:59:28;94271.31;;;2.55;76.83
47636;BME280;33364;50.766;15.338;2023-03-13T03:01:54;94260.03;;;2.23;75.53
47636;BME280;33364;50.766;15.338;2023-03-13T03:04:21;94269.66;;;2.29;78.41
47636;BME280;33364;50.766;15.338;2023-03-13T03:06:48;94269.47;;;2.62;81.36
47636;BME280;33364;50.766;15.338;2023-03-13T03:09:14;94274.97;;;2.54;76.70
47636;BME280;33364;50.766;15.338;2023-03-13T03:11:41;94266.22;;;2.67;78.85
47636;BME280;33364;50.766;15.338;2023-03-13T03:14:07;94270.94;;;2.51;78.03
47636;BME280;33364;50.766;15.338;2023-03-13T03:16:34;94270.78;;;2.46;79.72
47636;BME280;33364;50.766;15.338;2023-03-13T03:18:59;94268.03;;;2.34;76.95
47636;BME280;33364;50.766;15.338;2023-03-13T03:21:25;94253.34;;;2.27;78.35
47636;BME280;33364;50.766;15.338;2023-03-13T03:23:51;94258.19;;;2.23;77.01
47636;BME280;33364;50.766;15.338;2023-03-13T03:26:17;94256.75;;;2.27;78.38
47636;BME280;33364;50.766;15.338;2023-03-13T03:28:43;94253.53;;;2.25;78.08
47636;BME280;33364;50.766;15.338;2023-03-13T03:31:11;94246.97;;;2.09;77.92
47636;BME280;33364;50.766;15.338;2023-03-13T03:33:38;94252.56;;;2.19;77.66
47636;BME280;33364;50.766;15.338;2023-03-13T03:36:07;94255.22;;;2.13;77.43
47636;BME280;33364;50.766;15.338;2023-03-13T03:38:33;94250.19;;;2.11;78.52
47636;BME280;33364;50.766;15.338;2023-03-13T03:41:00;94249.16;;;2.12;78.15
47636;BME280;33364;50.766;15.338;2023-03-13T03:43:25;94246.50;;;2.19;78.77
47636;BME280;33364;50.766;15.338;2023-03-13T03:45:52;94241.38;;;2.37;81.26
47636;BME280;33364;50.766;15.338;2023-03-13T03:48:17;94239.69;;;2.50;78.79
47636;BME280;33364;50.766;15.338;2023-03-13T03:50:43;94233.59;;;2.56;77.88
47636;BME280;33364;50.766;15.338;2023-03-13T03:53:09;94240.31;;;2.52;80.71
47636;BME280;33364;50.766;15.338;2023-03-13T03:55:35;94237.94;;;2.44;76.60
47636;BME280;33364;50.766;15.338;2023-03-13T03:58:00;94238.63;;;2.26;76.82
47636;BME280;33364;50.766;15.338;2023-03-13T04:00:26;94237.19;;;2.30;76.53
47636;BME280;33364;50.766;15.338;2023-03-13T04:02:53;94240.03;;;2.28;78.37
47636;BME280;33364;50.766;15.338;2023-03-13T04:05:21;94237.03;;;2.25;77.25
47636;BME280;33364;50.766;15.338;2023-03-13T04:07:47;94231.06;;;2.04;78.63
47636;BME280;33364;50.766;15.338;2023-03-13T04:10:13;94234.75;;;1.96;78.31
47636;BME280;33364;50.766;15.338;2023-03-13T04:12:40;94240.31;;;2.13;78.57
47636;BME280;33364;50.766;15.338;2023-03-13T04:15:06;94229.94;;;2.25;79.36
47636;BME280;33364;50.766;15.338;2023-03-13T04:17:32;94233.41;;;2.57;83.16
47636;BME280;33364;50.766;15.338;2023-03-13T04:19:58;94228.31;;;2.63;79.94
47636;BME280;33364;50.766;15.338;2023-03-13T04:22:24;94225.69;;;2.63;77.64
47636;BME280;33364;50.766;15.338;2023-03-13T04:24:51;94227.38;;;2.82;82.30
47636;BME280;33364;50.766;15.338;2023-03-13T04:27:17;94215.03;;;2.57;76.18
47636;BME280;33364;50.766;15.338;2023-03-13T04:29:43;94217.06;;;2.55;81.50
47636;BME280;33364;50.766;15.338;2023-03-13T04:32:08;94218.22;;;2.34;77.58
47636;BME280;33364;50.766;15.338;2023-03-13T04:34:34;94214.88;;;2.14;78.15
47636;BME280;33364;50.766;15.338;2023-03-13T04:37:00;94213.44;;;2.25;78.76
47636;BME280;33364;50.766;15.338;2023-03-13T04:39:26;94216.09;;;2.18;77.66
47636;BME280;33364;50.766;15.338;2023-03-13T04:41:52;94215.75;;;2.08;77.47
47636;BME280;33364;50.766;15.338;2023-03-13T04:44:19;94208.84;;;2.13;79.99
47636;BME280;33364;50.766;15.338;2023-03-13T04:46:45;94198.84;;;1.97;77.99
47636;BME280;33364;50.766;15.338;2023-03-13T04:49:11;94192.00;;;1.96;78.89
47636;BME280;33364;50.766;15.338;2023-03-13T04:51:36;94198.91;;;1.90;78.66
47636;BME280;33364;50.766;15.338;2023-03-13T04:54:02;94191.94;;;2.09;79.69
47636;BME280;33364;50.766;15.338;2023-03-13T04:56:28;94189.97;;;2.05;79.68
47636;BME280;33364;50.766;15.338;2023-03-13T04:58:54;94188.34;;;2.04;77.76
47636;BME280;33364;50.766;15.338;2023-03-13T05:01:20;94182.69;;;2.07;77.94
47636;BME280;33364;50.766;15.338;2023-03-13T05:03:46;94177.19;;;2.15;78.25
47636;BME280;33364;50.766;15.338;2023-03-13T05:06:12;94171.88;;;2.28;78.53
47636;BME280;33364;50.766;15.338;2023-03-13T05:08:37;94172.06;;;2.27;78.51
47636;BME280;33364;50.766;15.338;2023-03-13T05:11:03;94168.78;;;2.38;82.93
47636;BME280;33364;50.766;15.338;2023-03-13T05:13:30;94164.41;;;2.57;80.96
47636;BME280;33364;50.766;15.338;2023-03-13T05:15:55;94166.88;;;2.52;79.41
47636;BME280;33364;50.766;15.338;2023-03-13T05:18:21;94155.75;;;2.25;78.04
47636;BME280;33364;50.766;15.338;2023-03-13T05:20:47;94162.47;;;2.14;78.48
47636;BME280;33364;50.766;15.338;2023-03-13T05:23:13;94163.38;;;2.33;80.17
47636;BME280;33364;50.766;15.338;2023-03-13T05:25:38;94158.19;;;2.26;78.84
47636;BME280;33364;50.766;15.338;2023-03-13T05:28:04;94162.56;;;2.32;81.87
47636;BME280;33364;50.766;15.338;2023-03-13T05:30:30;94159.81;;;2.20;79.79
47636;BME280;33364;50.766;15.338;2023-03-13T05:32:56;94161.13;;;2.05;81.87
47636;BME280;33364;50.766;15.338;2023-03-13T05:35:21;94156.81;;;2.17;79.57
47636;BME280;33364;50.766;15.338;2023-03-13T05:37:47;94157.16;;;1.95;78.85
47636;BME280;33364;50.766;15.338;2023-03-13T05:40:13;94154.16;;;2.24;84.28
47636;BME280;33364;50.766;15.338;2023-03-13T05:42:39;94151.63;;;2.10;80.01
47636;BME280;33364;50.766;15.338;2023-03-13T05:45:05;94151.28;;;2.00;79.87
47636;BME280;33364;50.766;15.338;2023-03-13T05:47:34;94148.03;;;2.05;78.95
47636;BME280;33364;50.766;15.338;2023-03-13T05:49:59;94141.13;;;2.42;83.98
47636;BME280;33364;50.766;15.338;2023-03-13T05:52:25;94154.09;;;2.30;79.28
47636;BME280;33364;50.766;15.338;2023-03-13T05:54:51;94144.19;;;2.39;79.52
47636;BME280;33364;50.766;15.338;2023-03-13T05:57:17;94138.63;;;2.22;78.09
47636;BME280;33364;50.766;15.338;2023-03-13T05:59:42;94135.69;;;2.12;81.39
47636;BME280;33364;50.766;15.338;2023-03-13T06:02:08;94141.13;;;2.10;80.98
47636;BME280;33364;50.766;15.338;2023-03-13T06:04:34;94137.09;;;2.14;80.00
47636;BME280;33364;50.766;15.338;2023-03-13T06:07:00;94130.97;;;2.20;79.95
47636;BME280;33364;50.766;15.338;2023-03-13T06:09:26;94132.13;;;2.31;79.66
47636;BME280;33364;50.766;15.338;2023-03-13T06:11:52;94135.53;;;2.07;79.91
47636;BME280;33364;50.766;15.338;2023-03-13T06:14:18;94138.44;;;2.24;81.58
47636;BME280;33364;50.766;15.338;2023-03-13T06:16:43;94126.16;;;2.24;81.70
47636;BME280;33364;50.766;15.338;2023-03-13T06:19:09;94126.00;;;2.12;80.34
47636;BME280;33364;50.766;15.338;2023-03-13T06:21:36;94129.81;;;2.16;82.11
47636;BME280;33364;50.766;15.338;2023-03-13T06:24:02;94118.81;;;2.01;80.46
47636;BME280;33364;50.766;15.338;2023-03-13T06:26:28;94083.31;;;2.05;82.14
47636;BME280;33364;50.766;15.338;2023-03-13T06:28:54;94093.38;;;2.33;84.11
47636;BME280;33364;50.766;15.338;2023-03-13T06:31:20;94093.44;;;2.27;80.15
47636;BME280;33364;50.766;15.338;2023-03-13T06:33:46;94105.81;;;2.45;81.90
47636;BME280;33364;50.766;15.338;2023-03-13T06:36:12;94100.56;;;2.19;81.88
47636;BME280;33364;50.766;15.338;2023-03-13T06:38:38;94107.06;;;2.42;84.09
47636;BME280;33364;50.766;15.338;2023-03-13T06:41:04;94101.31;;;2.52;82.65
47636;BME280;33364;50.766;15.338;2023-03-13T06:43:29;94096.22;;;2.32;79.99
47636;BME280;33364;50.766;15.338;2023-03-13T06:45:55;94093.03;;;2.30;81.36
47636;BME280;33364;50.766;15.338;2023-03-13T06:48:21;94095.06;;;2.28;83.23
47636;BME280;33364;50.766;15.338;2023-03-13T06:50:48;94105.19;;;2.24;82.05
47636;BME280;33364;50.766;15.338;2023-03-13T06:53:16;94091.66;;;2.20;83.58
47636;BME280;33364;50.766;15.338;2023-03-13T06:55:43;94101.69;;;2.30;82.44
47636;BME280;33364;50.766;15.338;2023-03-13T06:58:09;94102.38;;;2.19;82.48
47636;BME280;33364;50.766;15.338;2023-03-13T07:00:35;94090.66;;;2.22;83.31
47636;BME280;33364;50.766;15.338;2023-03-13T07:03:01;94085.25;;;2.42;84.59
47636;BME280;33364;50.766;15.338;2023-03-13T07:05:27;94106.44;;;2.65;83.90
47636;BME280;33364;50.766;15.338;2023-03-13T07:07:52;94131.34;;;2.81;83.58
47636;BME280;33364;50.766;15.338;2023-03-13T07:10:18;94128.16;;;2.72;82.92
47636;BME280;33364;50.766;15.338;2023-03-13T07:12:44;94133.00;;;2.50;80.64
47636;BME280;33364;50.766;15.338;2023-03-13T07:15:10;94133.13;;;2.30;83.61
47636;BME280;33364;50.766;15.338;2023-03-13T07:17:36;94121.16;;;2.41;84.92
47636;BME280;33364;50.766;15.338;2023-03-13T07:20:03;94112.94;;;2.37;84.35
47636;BME280;33364;50.766;15.338;2023-03-13T07:22:29;94107.41;;;2.46;85.01
47636;BME280;33364;50.766;15.338;2023-03-13T07:24:55;94102.22;;;2.39;83.85
47636;BME280;33364;50.766;15.338;2023-03-13T07:27:21;94100.28;;;2.53;83.20
47636;BME280;33364;50.766;15.338;2023-03-13T07:29:48;94102.63;;;2.61;85.09
47636;BME280;33364;50.766;15.338;2023-03-13T07:32:14;94109.78;;;2.54;84.31
47636;BME280;33364;50.766;15.338;2023-03-13T07:34:40;94109.19;;;2.52;83.86
47636;BME280;33364;50.766;15.338;2023-03-13T07:37:10;94104.31;;;2.55;84.81
47636;BME280;33364;50.766;15.338;2023-03-13T07:39:36;94103.25;;;2.63;82.49
47636;BME280;33364;50.766;15.338;2023-03-13T07:42:02;94095.09;;;2.71;83.50
47636;BME280;33364;50.766;15.338;2023-03-13T07:44:28;94090.56;;;2.60;83.95
47636;BME280;33364;50.766;15.338;2023-03-13T07:46:54;94085.75;;;2.75;85.56
47636;BME280;33364;50.766;15.338;2023-03-13T07:49:20;94084.00;;;2.69;83.11
47636;BME280;33364;50.766;15.338;2023-03-13T07:51:45;94074.56;;;2.87;84.65
47636;BME280;33364;50.766;15.338;2023-03-13T07:54:15;94069.22;;;2.93;84.09
47636;BME280;33364;50.766;15.338;2023-03-13T07:56:41;94068.44;;;3.11;83.96
47636;BME280;33364;50.766;15.338;2023-03-13T07:59:07;94051.94;;;3.23;84.82
47636;BME280;33364;50.766;15.338;2023-03-13T08:01:33;94052.53;;;3.25;82.86
47636;BME280;33364;50.766;15.338;2023-03-13T08:03:59;94053.34;;;3.25;81.15
47636;BME280;33364;50.766;15.338;2023-03-13T08:06:32;94061.75;;;3.16;81.92
47636;BME280;33364;50.766;15.338;2023-03-13T08:09:00;94045.91;;;3.22;83.28
47636;BME280;33364;50.766;15.338;2023-03-13T08:11:27;94050.78;;;3.37;82.67
47636;BME280;33364;50.766;15.338;2023-03-13T08:13:54;94052.00;;;3.53;82.67
47636;BME280;33364;50.766;15.338;2023-03-13T08:16:22;94047.50;;;3.42;81.59
47636;BME280;33364;50.766;15.338;2023-03-13T08:18:51;94040.28;;;3.37;81.22
47636;BME280;33364;50.766;15.338;2023-03-13T08:21:23;94024.78;;;3.47;83.09
47636;BME280;33364;50.766;15.338;2023-03-13T08:23:52;94026.69;;;3.40;81.74
47636;BME280;33364;50.766;15.338;2023-03-13T08:26:20;94012.50;;;3.60;81.13
47636;BME280;33364;50.766;15.338;2023-03-13T08:28:50;94005.31;;;3.67;80.78
47636;BME280;33364;50.766;15.338;2023-03-13T08:31:25;94005.44;;;3.72;81.01
47636;BME280;33364;50.766;15.338;2023-03-13T08:33:51;94004.44;;;3.85;81.46
47636;BME280;33364;50.766;15.338;2023-03-13T08:36:20;94010.31;;;3.99;80.82
47636;BME280;33364;50.766;15.338;2023-03-13T08:38:48;93998.28;;;3.91;79.82
47636;BME280;33364;50.766;15.338;2023-03-13T08:41:16;93996.34;;;3.86;81.40
47636;BME280;33364;50.766;15.338;2023-03-13T08:43:43;93993.59;;;3.81;81.99
47636;BME280;33364;50.766;15.338;2023-03-13T08:46:09;93986.31;;;4.07;84.39
47636;BME280;33364;50.766;15.338;2023-03-13T08:48:35;93998.78;;;4.23;82.51
47636;BME280;33364;50.766;15.338;2023-03-13T08:51:03;93996.34;;;4.10;80.54
47636;BME280;33364;50.766;15.338;2023-03-13T08:53:30;93997.06;;;4.17;81.61
47636;BME280;33364;50.766;15.338;2023-03-13T08:55:56;94003.22;;;4.11;82.34
47636;BME280;33364;50.766;15.338;2023-03-13T08:58:23;93994.31;;;4.12;81.76
47636;BME280;33364;50.766;15.338;2023-03-13T09:00:52;93989.41;;;4.28;82.51
47636;BME280;33364;50.766;15.338;2023-03-13T09:03:18;93982.66;;;4.32;81.97
47636;BME280;33364;50.766;15.338;2023-03-13T09:05:43;93982.41;;;4.21;81.39
47636;BME280;33364;50.766;15.338;2023-03-13T09:08:13;93982.31;;;4.16;81.85
47636;BME280;33364;50.766;15.338;2023-03-13T09:10:39;93982.78;;;4.25;81.93
47636;BME280;33364;50.766;15.338;2023-03-13T09:13:05;93985.06;;;4.21;81.27
47636;BME280;33364;50.766;15.338;2023-03-13T09:15:31;93984.03;;;4.22;81.30
47636;BME280;33364;50.766;15.338;2023-03-13T09:17:57;93982.41;;;4.21;81.43
47636;BME280;33364;50.766;15.338;2023-03-13T09:20:22;93973.38;;;4.41;83.77
47636;BME280;33364;50.766;15.338;2023-03-13T09:22:48;93980.59;;;4.34;80.98
47636;BME280;33364;50.766;15.338;2023-03-13T09:25:14;93976.59;;;4.19;81.85
47636;BME280;33364;50.766;15.338;2023-03-13T09:27:40;93987.00;;;4.14;81.28
47636;BME280;33364;50.766;15.338;2023-03-13T09:30:07;93989.41;;;4.16;81.48
47636;BME280;33364;50.766;15.338;2023-03-13T09:32:34;93999.47;;;4.19;82.12
47636;BME280;33364;50.766;15.338;2023-03-13T09:34:59;93989.97;;;4.30;82.48
47636;BME280;33364;50.766;15.338;2023-03-13T09:37:25;93986.88;;;4.33;81.98
47636;BME280;33364;50.766;15.338;2023-03-13T09:39:51;93975.88;;;4.00;81.25
47636;BME280;33364;50.766;15.338;2023-03-13T09:42:20;93985.38;;;3.90;82.09
47636;BME280;33364;50.766;15.338;2023-03-13T09:44:58;93994.47;;;3.75;82.97
47636;BME280;33364;50.766;15.338;2023-03-13T09:50:11;93982.47;;;3.67;81.76
47636;BME280;33364;50.766;15.338;2023-03-13T09:52:39;93992.69;;;3.88;83.66
47636;BME280;33364;50.766;15.338;2023-03-13T09:57:59;94005.00;;;3.75;81.70
47636;BME280;33364;50.766;15.338;2023-03-13T10:00:30;94001.28;;;3.64;82.16
47636;BME280;33364;50.766;15.338;2023-03-13T10:03:07;94000.75;;;3.74;83.93
47636;BME280;33364;50.766;15.338;2023-03-13T10:05:49;93999.41;;;3.83;84.56
47636;BME280;33364;50.766;15.338;2023-03-13T10:08:34;93994.56;;;3.57;82.05
47636;BME280;33364;50.766;15.338;2023-03-13T10:11:10;93983.63;;;3.72;84.42
47636;BME280;33364;50.766;15.338;2023-03-13T10:13:58;93976.44;;;3.79;83.18
47636;BME280;33364;50.766;15.338;2023-03-13T10:18:58;93977.94;;;3.44;84.73
47636;BME280;33364;50.766;15.338;2023-03-13T10:21:34;93975.31;;;3.44;85.53
47636;BME280;33364;50.766;15.338;2023-03-13T10:24:15;93976.22;;;3.38;85.73
47636;BME280;33364;50.766;15.338;2023-03-13T10:26:42;93969.41;;;3.49;85.16
47636;BME280;33364;50.766;15.338;2023-03-13T10:29:27;93965.78;;;3.62;87.49
47636;BME280;33364;50.766;15.338;2023-03-13T10:31:56;93980.53;;;3.63;85.83
47636;BME280;33364;50.766;15.338;2023-03-13T10:35:09;93975.19;;;3.39;84.61
47636;BME280;33364;50.766;15.338;2023-03-13T10:37:13;93984.09;;;3.38;85.93
47636;BME280;33364;50.766;15.338;2023-03-13T10:39:39;93972.34;;;3.41;86.27
47636;BME280;33364;50.766;15.338;2023-03-13T10:42:20;93974.63;;;3.37;86.24
47636;BME280;33364;50.766;15.338;2023-03-13T10:44:46;93980.31;;;3.34;87.32
47636;BME280;33364;50.766;15.338;2023-03-13T10:47:13;93980.13;;;3.47;87.38
47636;BME280;33364;50.766;15.338;2023-03-13T10:49:56;93980.66;;;3.38;87.05
47636;BME280;33364;50.766;15.338;2023-03-13T10:52:33;93962.50;;;3.36;87.23
47636;BME280;33364;50.766;15.338;2023-03-13T10:55:05;93966.09;;;3.54;88.36
47636;BME280;33364;50.766;15.338;2023-03-13T10:57:33;93961.44;;;3.56;87.73
47636;BME280;33364;50.766;15.338;2023-03-13T11:00:03;93972.09;;;3.30;85.58
47636;BME280;33364;50.766;15.338;2023-03-13T11:02:37;93981.31;;;3.52;86.69
47636;BME280;33364;50.766;15.338;2023-03-13T11:07:48;93971.38;;;3.54;87.69
47636;BME280;33364;50.766;15.338;2023-03-13T11:10:21;93963.84;;;3.69;85.46
47636;BME280;33364;50.766;15.338;2023-03-13T11:12:50;93964.91;;;3.68;86.29
47636;BME280;33364;50.766;15.338;2023-03-13T11:15:45;93976.41;;;3.67;85.40
47636;BME280;33364;50.766;15.338;2023-03-13T11:18:23;93961.50;;;3.37;84.71
47636;BME280;33364;50.766;15.338;2023-03-13T11:20:51;93953.88;;;3.47;86.42
47636;BME280;33364;50.766;15.338;2023-03-13T11:23:35;93966.44;;;3.57;86.10
47636;BME280;33364;50.766;15.338;2023-03-13T11:26:25;93942.13;;;3.50;84.73
47636;BME280;33364;50.766;15.338;2023-03-13T11:31:45;93951.09;;;3.84;86.23
47636;BME280;33364;50.766;15.338;2023-03-13T11:34:21;93939.91;;;4.01;84.95
47636;BME280;33364;50.766;15.338;2023-03-13T11:37:14;93929.28;;;3.96;83.19
47636;BME280;33364;50.766;15.338;2023-03-13T11:56:00;93892.25;;;3.85;83.30
47636;BME280;33364;50.766;15.338;2023-03-13T12:04:53;93872.25;;;3.96;85.87
47636;BME280;33364;50.766;15.338;2023-03-13T12:09:56;93871.91;;;4.04;83.47
47636;BME280;33364;50.766;15.338;2023-03-13T12:12:45;93864.47;;;4.13;84.05
47636;BME280;33364;50.766;15.338;2023-03-13T12:17:49;93866.19;;;4.08;83.02
47636;BME280;33364;50.766;15.338;2023-03-13T12:22:53;93893.97;;;4.15;83.08
47636;BME280;33364;50.766;15.338;2023-03-13T12:25:27;93902.56;;;3.99;81.72
47636;BME280;33364;50.766;15.338;2023-03-13T12:28:36;93883.78;;;3.72;82.13
47636;BME280;33364;50.766;15.338;2023-03-13T12:33:54;93866.53;;;3.64;84.26
47636;BME280;33364;50.766;15.338;2023-03-13T12:42:16;93854.66;;;3.97;84.89
47636;BME280;33364;50.766;15.338;2023-03-13T12:44:44;93861.84;;;4.01;83.51
47636;BME280;33364;50.766;15.338;2023-03-13T12:47:17;93873.75;;;4.04;84.82
47636;BME280;33364;50.766;15.338;2023-03-13T12:58:11;93858.44;;;4.01;82.72
47636;BME280;33364;50.766;15.338;2023-03-13T13:00:42;93853.28;;;4.06;82.98
47636;BME280;33364;50.766;15.338;2023-03-13T13:03:59;93841.06;;;4.00;81.22
47636;BME280;33364;50.766;15.338;2023-03-13T13:06:29;93860.59;;;4.04;83.81
47636;BME280;33364;50.766;15.338;2023-03-13T13:09:19;93856.03;;;3.88;83.99
47636;BME280;33364;50.766;15.338;2023-03-13T13:11:47;93844.72;;;3.87;83.62
47636;BME280;33364;50.766;15.338;2023-03-13T13:16:55;93847.13;;;3.89;84.82
47636;BME280;33364;50.766;15.338;2023-03-13T13:25:00;93837.34;;;4.25;84.50
47636;BME280;33364;50.766;15.338;2023-03-13T13:30:03;93826.34;;;3.99;82.49
47636;BME280;33364;50.766;15.338;2023-03-13T13:35:29;93832.91;;;4.13;84.91
47636;BME280;33364;50.766;15.338;2023-03-13T13:43:34;93802.94;;;4.26;86.28
47636;BME280;33364;50.766;15.338;2023-03-13T13:46:04;93798.84;;;4.18;82.70
47636;BME280;33364;50.766;15.338;2023-03-13T13:48:35;93816.22;;;4.19;83.39
47636;BME280;33364;50.766;15.338;2023-03-13T13:56:37;93815.81;;;3.99;82.32
47636;BME280;33364;50.766;15.338;2023-03-13T14:02:16;93821.06;;;3.99;84.06
47636;BME280;33364;50.766;15.338;2023-03-13T14:05:02;93816.03;;;4.09;83.79
47636;BME280;33364;50.766;15.338;2023-03-13T14:07:54;93814.09;;;4.04;83.36
47636;BME280;33364;50.766;15.338;2023-03-13T14:10:51;93814.91;;;3.93;82.49
47636;BME280;33364;50.766;15.338;2023-03-13T14:13:20;93816.63;;;3.88;82.14
47636;BME280;33364;50.766;15.338;2023-03-13T14:15:52;93827.00;;;3.82;84.88
47636;BME280;33364;50.766;15.338;2023-03-13T14:18:25;93815.81;;;3.87;84.38
47636;BME280;33364;50.766;15.338;2023-03-13T14:21:09;93820.63;;;3.78;83.97
47636;BME280;33364;50.766;15.338;2023-03-13T14:23:46;93800.38;;;4.02;86.26
47636;BME280;33364;50.766;15.338;2023-03-13T14:26:22;93813.19;;;3.87;84.67
47636;BME280;33364;50.766;15.338;2023-03-13T14:29:00;93806.56;;;3.96;84.44
47636;BME280;33364;50.766;15.338;2023-03-13T14:31:38;93817.84;;;4.09;85.12
47636;BME280;33364;50.766;15.338;2023-03-13T14:34:07;93818.31;;;3.94;83.35
47636;BME280;33364;50.766;15.338;2023-03-13T14:36:46;93808.16;;;3.74;83.50
47636;BME280;33364;50.766;15.338;2023-03-13T14:39:20;93798.78;;;4.01;84.90
47636;BME280;33364;50.766;15.338;2023-03-13T14:41:47;93795.03;;;3.97;84.49
47636;BME280;33364;50.766;15.338;2023-03-13T14:44:21;93795.72;;;3.93;84.65
47636;BME280;33364;50.766;15.338;2023-03-13T14:46:58;93808.03;;;3.92;83.76
47636;BME280;33364;50.766;15.338;2023-03-13T14:49:26;93804.63;;;3.92;83.91